Time;durP1;ratioP1;P1;durP2;ratioP2;P2;SDS_P1;SDS_P2;PMS_P1;PMS_P2;Temp;Humidity;BMP_temperature;BMP_pressure;BME280_temperature;BME280_humidity;BME280_pressure;Samples;Min_cycle;Max_cycle;Signal;HPM_P1;HPM_P2
2022/01/13 00:02:21;;;;;;;0.00;0.00;;;;;;;-4.93;66.21;100561.31;5108199;28;20032;-70
2022/01/13 00:04:47;;;;;;;0.00;0.00;;;;;;;-4.93;66.58;100569.97;5094757;28;20402;-70
2022/01/13 00:07:13;;;;;;;0.00;0.00;;;;;;;-4.92;66.43;100562.97;5109900;28;20539;-71
2022/01/13 00:09:38;;;;;;;0.00;0.00;;;;;;;-4.81;66.84;100591.50;5107805;28;20059;-71
2022/01/13 00:12:06;;;;;;;0.00;0.00;;;;;;;-4.83;66.75;100585.63;5110677;28;20030;-70
2022/01/13 00:19:46;;;;;;;0.00;0.00;;;;;;;-4.95;66.73;100568.47;5097219;28;20439;-71
2022/01/13 00:22:27;;;;;;;0.00;0.00;;;;;;;-5.00;67.02;100569.69;5091295;28;20030;-71
2022/01/13 00:24:54;;;;;;;0.00;0.00;;;;;;;-4.99;66.76;100583.56;5091096;28;20032;-71
2022/01/13 00:27:22;;;;;;;0.00;0.00;;;;;;;-5.00;66.77;100590.56;5092620;28;20028;-71
2022/01/13 00:29:48;;;;;;;;;;;;;;;-5.01;67.49;100595.91;5110408;28;20114;-73
2022/01/13 00:32:15;;;;;;;0.00;0.00;;;;;;;-5.15;67.76;100577.09;5101247;28;20003;-72
2022/01/13 00:34:42;;;;;;;0.00;0.00;;;;;;;-5.13;67.76;100576.13;5089636;28;20024;-71
2022/01/13 00:37:08;;;;;;;0.00;0.00;;;;;;;-5.10;67.72;100581.91;5090975;28;20020;-72
2022/01/13 00:39:34;;;;;;;0.00;0.00;;;;;;;-4.97;67.69;100597.28;5090742;28;20032;-71
2022/01/13 00:41:59;;;;;;;0.00;0.00;;;;;;;-4.97;68.15;100599.06;5092007;28;20028;-71
2022/01/13 00:44:25;;;;;;;0.00;0.00;;;;;;;-4.99;68.25;100594.00;5099738;28;20069;-71
2022/01/13 00:46:58;;;;;;;0.00;0.00;;;;;;;-4.95;68.36;100597.16;5100040;28;20362;-75
2022/01/13 00:49:25;;;;;;;0.00;0.00;;;;;;;-4.97;68.06;100606.91;5097642;28;20020;-71
2022/01/13 00:51:52;;;;;;;0.00;0.00;;;;;;;-4.91;68.27;100611.59;5110109;28;20047;-71
2022/01/13 00:54:17;;;;;;;0.10;0.10;;;;;;;-4.99;68.42;100596.63;5109838;28;20062;-70
2022/01/13 00:56:43;;;;;;;0.00;0.00;;;;;;;-4.91;67.86;100599.34;5109026;28;20451;-72
2022/01/13 00:59:13;;;;;;;0.00;0.00;;;;;;;-4.90;67.76;100606.22;5110770;28;20031;-71
2022/01/13 01:01:42;;;;;;;0.00;0.00;;;;;;;-4.91;68.29;100608.97;5109796;28;20051;-70
2022/01/13 01:04:08;;;;;;;0.00;0.00;;;;;;;-4.92;67.68;100596.88;5101563;28;20032;-72
2022/01/13 01:06:35;;;;;;;0.00;0.00;;;;;;;-5.07;67.92;100584.22;5093115;28;20176;-72
2022/01/13 01:09:02;;;;;;;0.00;0.00;;;;;;;-5.08;67.74;100590.41;5093823;28;20575;-71
2022/01/13 01:11:28;;;;;;;0.00;0.00;;;;;;;-5.05;67.84;100599.78;5101105;28;20037;-69
2022/01/13 01:13:55;;;;;;;0.00;0.00;;;;;;;-5.02;67.51;100602.91;5104209;28;20035;-70
2022/01/13 01:16:22;;;;;;;0.00;0.00;;;;;;;-5.12;67.18;100583.00;5112742;28;20039;-71
2022/01/13 01:18:53;;;;;;;0.00;0.00;;;;;;;-5.24;67.29;100564.84;5108723;28;20176;-71
2022/01/13 01:29:18;;;;;;;0.00;0.00;;;;;;;-5.32;67.43;100586.41;5101118;28;20023;-70
2022/01/13 01:31:50;;;;;;;0.00;0.00;;;;;;;-5.22;67.48;100602.06;5103520;28;20036;-70
2022/01/13 01:37:01;;;;;;;0.00;0.00;;;;;;;-5.18;67.54;100608.66;5104952;28;20409;-70
2022/01/13 01:39:27;;;;;;;0.00;0.00;;;;;;;-5.23;67.39;100589.97;5114340;28;20066;-72
2022/01/13 01:41:55;;;;;;;0.00;0.00;;;;;;;-5.31;67.20;100580.22;5112022;28;20502;-70
2022/01/13 01:44:32;;;;;;;0.00;0.00;;;;;;;-5.20;67.00;100588.88;5100402;28;20115;-70
2022/01/13 01:46:58;;;;;;;0.00;0.00;;;;;;;-5.04;67.28;100615.28;5113284;28;20031;-69
2022/01/13 01:49:25;;;;;;;0.00;0.00;;;;;;;-5.16;67.13;100583.25;5112056;28;20462;-71
2022/01/13 01:52:00;;;;;;;0.00;0.00;;;;;;;-5.07;66.65;100604.28;5110558;28;20095;-71
2022/01/13 01:54:27;;;;;;;0.00;0.00;;;;;;;-5.21;66.72;100577.63;5112906;28;20449;-71
2022/01/13 01:56:53;;;;;;;0.00;0.00;;;;;;;-5.08;66.45;100589.59;5113806;27;20039;-71
2022/01/13 01:59:23;;;;;;;0.00;0.00;;;;;;;-4.97;66.65;100596.47;5112146;28;20088;-72
2022/01/13 02:01:49;;;;;;;0.00;0.00;;;;;;;-4.96;66.60;100604.16;5107369;28;20399;-70
2022/01/13 02:04:17;;;;;;;0.00;0.00;;;;;;;-5.02;66.24;100597.69;5112569;28;20043;-71
2022/01/13 02:06:44;;;;;;;0.00;0.00;;;;;;;-4.94;66.61;100604.84;5102740;28;20028;-71
2022/01/13 02:09:11;;;;;;;0.00;0.00;;;;;;;-4.93;66.60;100605.66;5112061;28;20080;-71
2022/01/13 02:11:48;;;;;;;0.00;0.00;;;;;;;-5.04;66.63;100583.97;5103898;28;20510;-71
2022/01/13 02:16:52;;;;;;;;;;;;;;;-4.94;66.55;100606.63;5100410;28;20035;-71
2022/01/13 02:19:19;;;;;;;0.63;0.63;;;;;;;-5.04;66.73;100594.41;5095073;28;20279;-69
2022/01/13 02:21:44;;;;;;;0.00;0.00;;;;;;;-5.04;66.43;100598.78;5106183;28;20031;-70
2022/01/13 02:24:10;;;;;;;0.00;0.00;;;;;;;-5.07;66.53;100604.28;5112095;28;20062;-72
2022/01/13 02:26:36;;;;;;;0.00;0.00;;;;;;;-5.08;66.54;100602.63;5096226;28;20054;-71
2022/01/13 02:29:02;;;;;;;0.00;0.00;;;;;;;-5.12;66.72;100609.91;5109841;28;20020;-72
2022/01/13 02:31:27;;;;;;;0.00;0.00;;;;;;;-5.21;66.20;100598.50;5107519;28;20035;-70
2022/01/13 02:33:54;;;;;;;0.00;0.00;;;;;;;-5.19;66.76;100614.84;5112586;28;20034;-70
2022/01/13 02:36:22;;;;;;;0.00;0.00;;;;;;;-5.22;66.54;100593.44;5112921;28;20027;-71
2022/01/13 02:38:53;;;;;;;0.00;0.00;;;;;;;-5.22;66.72;100609.06;5111464;28;20535;-71
2022/01/13 02:41:19;;;;;;;0.00;0.00;;;;;;;-5.42;67.18;100576.91;5111514;28;20030;-70
2022/01/13 02:43:47;;;;;;;0.00;0.00;;;;;;;-5.33;66.83;100613.44;5100416;28;20032;-69
2022/01/13 02:49:12;;;;;;;1.07;1.07;;;;;;;-5.43;67.12;100614.34;5091853;28;20120;-72
2022/01/13 02:51:39;;;;;;;1.10;0.87;;;;;;;-5.59;67.03;100588.78;5111841;28;20075;-72
2022/01/13 02:54:06;;;;;;;0.00;0.00;;;;;;;-5.68;66.97;100595.63;5104650;28;20032;-70
2022/01/13 02:56:32;;;;;;;0.00;0.00;;;;;;;-5.71;67.45;100585.44;5105502;28;20028;-72
2022/01/13 02:58:58;;;;;;;0.00;0.00;;;;;;;-5.67;67.21;100595.47;5111534;28;20035;-71
2022/01/13 03:01:23;;;;;;;0.00;0.00;;;;;;;-5.63;67.01;100606.47;5108315;28;20047;-71
2022/01/13 03:03:49;;;;;;;0.47;0.37;;;;;;;-5.67;66.81;100605.09;5091740;28;20102;-71
2022/01/13 03:06:20;;;;;;;0.00;0.00;;;;;;;-5.78;67.28;100593.78;5092491;28;20028;-70
2022/01/13 03:08:47;;;;;;;0.00;0.00;;;;;;;-5.75;67.73;100592.69;5096468;28;20547;-70
2022/01/13 03:11:14;;;;;;;0.00;0.00;;;;;;;-5.79;67.58;100597.34;5109134;28;20024;-70
2022/01/13 03:13:40;;;;;;;0.00;0.00;;;;;;;-5.84;67.54;100601.31;5090449;28;20028;-70
2022/01/13 03:16:13;;;;;;;0.00;0.00;;;;;;;-6.09;67.59;100579.16;5092295;28;20020;-70
2022/01/13 03:18:40;;;;;;;0.00;0.00;;;;;;;-5.93;67.42;100610.75;5105275;28;20502;-68
2022/01/13 03:21:06;;;;;;;0.00;0.00;;;;;;;-5.95;68.09;100603.03;5106887;28;20051;-68
2022/01/13 03:23:36;;;;;;;0.00;0.00;;;;;;;-6.02;67.69;100599.34;5110515;28;20086;-69
2022/01/13 03:26:03;;;;;;;0.93;0.93;;;;;;;-6.00;67.59;100613.06;5108679;28;20499;-69
2022/01/13 03:28:30;;;;;;;0.10;0.10;;;;;;;-6.14;68.09;100592.56;5098294;28;20560;-68
2022/01/13 03:31:00;;;;;;;0.00;0.00;;;;;;;-6.06;67.94;100602.34;5090939;28;20035;-68
2022/01/13 03:33:25;;;;;;;0.00;0.00;;;;;;;-6.19;67.96;100592.97;5091848;28;20077;-69
2022/01/13 03:35:51;;;;;;;0.00;0.00;;;;;;;-6.10;68.51;100601.78;5102821;28;20028;-70
2022/01/13 03:38:17;;;;;;;0.00;0.00;;;;;;;-6.10;68.18;100601.78;5106091;28;20027;-70
2022/01/13 03:40:42;;;;;;;0.00;0.00;;;;;;;-6.13;68.99;100595.06;5091343;28;20028;-69
2022/01/13 03:43:07;;;;;;;0.00;0.00;;;;;;;-6.11;68.53;100600.13;5104877;28;20439;-69
2022/01/13 03:45:33;;;;;;;0.00;0.00;;;;;;;-6.10;68.70;100593.97;5104368;28;20058;-68
2022/01/13 03:48:00;;;;;;;0.00;0.00;;;;;;;-6.10;68.53;100609.59;5091318;28;20032;-69
2022/01/13 03:50:26;;;;;;;0.00;0.00;;;;;;;-6.10;68.39;100614.81;5091396;28;20416;-69
2022/01/13 03:53:03;;;;;;;0.00;0.00;;;;;;;-6.19;69.15;100608.59;5109595;28;20048;-70
2022/01/13 03:55:35;;;;;;;0.00;0.00;;;;;;;-6.19;68.82;100620.78;5108916;28;20032;-70
2022/01/13 03:58:30;;;;;;;0.00;0.00;;;;;;;-6.19;68.36;100615.56;5091320;28;20043;-70
2022/01/13 04:01:33;;;;;;;0.17;0.17;;;;;;;-6.19;68.66;100620.78;5093356;28;20126;-69
2022/01/13 04:03:59;;;;;;;0.00;0.00;;;;;;;-6.22;68.85;100613.22;5090891;28;20487;-71
2022/01/13 04:06:33;;;;;;;0.00;0.00;;;;;;;-6.30;68.46;100595.63;5125373;27;20043;-71
2022/01/13 04:08:59;;;;;;;0.00;0.00;;;;;;;-6.25;68.36;100603.88;5107981;28;20027;-71
2022/01/13 04:11:32;;;;;;;0.00;0.00;;;;;;;-6.31;68.64;100596.56;5091499;28;20495;-72
2022/01/13 04:14:04;;;;;;;0.00;0.00;;;;;;;-6.28;68.42;100604.94;5110626;28;20028;-72
2022/01/13 04:16:32;;;;;;;0.00;0.00;;;;;;;-6.24;68.77;100615.94;5089746;28;20058;-68
2022/01/13 04:19:04;;;;;;;1.80;1.67;;;;;;;-6.40;68.46;100589.53;5090914;28;20031;-71
2022/01/13 04:21:31;;;;;;;0.00;0.00;;;;;;;-6.29;68.58;100618.09;5095151;28;20031;-72
2022/01/13 04:23:57;;;;;;;0.00;0.00;;;;;;;-6.36;68.69;100602.19;5094787;28;20031;-72
2022/01/13 04:26:34;;;;;;;0.00;0.00;;;;;;;-6.44;68.84;100610.59;5098447;28;20429;-70
2022/01/13 04:31:36;;;;;;;0.00;0.00;;;;;;;-6.23;69.10;100622.00;5097634;28;20039;-71
2022/01/13 04:34:01;;;;;;;0.00;0.00;;;;;;;-6.18;69.01;100630.25;5091373;28;20044;-72
2022/01/13 04:36:27;;;;;;;0.00;0.00;;;;;;;-6.41;68.89;100590.50;5090918;28;20376;-70
2022/01/13 04:38:53;;;;;;;0.00;0.00;;;;;;;-6.12;69.38;100630.53;5090659;28;20107;-70
2022/01/13 04:41:29;;;;;;;0.00;0.00;;;;;;;-6.12;69.47;100627.13;5095905;28;20062;-72
2022/01/13 04:43:55;;;;;;;0.00;0.00;;;;;;;-6.05;69.16;100638.69;5114560;28;20030;-69
2022/01/13 04:46:21;;;;;;;0.00;0.00;;;;;;;-6.09;68.47;100634.69;5106951;28;20028;-68
2022/01/13 04:48:46;;;;;;;0.00;0.00;;;;;;;-6.11;69.12;100637.41;5111600;28;20028;-69
2022/01/13 04:51:12;;;;;;;0.00;0.00;;;;;;;-6.16;69.27;100616.13;5109158;28;20024;-68
2022/01/13 04:53:38;;;;;;;0.00;0.00;;;;;;;-6.39;69.43;100581.59;5107858;28;20534;-69
2022/01/13 04:56:10;;;;;;;0.00;0.00;;;;;;;-6.06;69.06;100641.41;5099669;28;20059;-69
2022/01/13 04:58:35;;;;;;;0.00;0.00;;;;;;;-6.10;69.08;100635.63;5112527;28;20475;-69
2022/01/13 05:01:01;;;;;;;0.00;0.00;;;;;;;-6.08;68.94;100632.91;5114082;28;20047;-70
2022/01/13 05:03:26;;;;;;;0.00;0.00;;;;;;;-6.41;69.03;100585.28;5095352;28;20051;-69
2022/01/13 05:05:51;;;;;;;0.00;0.00;;;;;;;-6.18;68.80;100622.44;5110359;28;20055;-68
2022/01/13 05:08:17;;;;;;;0.00;0.00;;;;;;;-6.16;69.19;100636.97;5095188;28;20111;-70
2022/01/13 05:10:43;;;;;;;0.00;0.00;;;;;;;-6.16;69.52;100646.56;5101790;27;20057;-70
2022/01/13 05:13:10;;;;;;;0.00;0.00;;;;;;;-6.32;69.02;100627.00;5110054;28;20482;-70
2022/01/13 05:15:38;;;;;;;0.10;0.10;;;;;;;-6.28;69.62;100640.59;5109611;28;20047;-70
2022/01/13 05:18:13;;;;;;;0.00;0.00;;;;;;;-6.29;69.23;100646.75;5101944;28;20023;-71
2022/01/13 05:21:01;;;;;;;0.00;0.00;;;;;;;-6.29;69.52;100654.56;5103323;28;20115;-72
2022/01/13 05:23:26;;;;;;;0.08;0.08;;;;;;;-6.28;69.65;100649.22;5100586;28;20059;-74
2022/01/13 05:25:52;;;;;;;0.00;0.00;;;;;;;-6.28;69.29;100654.41;5101558;28;20059;-72
2022/01/13 05:28:17;;;;;;;0.00;0.00;;;;;;;-6.34;69.57;100656.72;5095254;28;20024;-71
2022/01/13 05:30:43;;;;;;;0.00;0.00;;;;;;;-6.33;69.75;100659.19;5102124;28;20035;-70
2022/01/13 05:33:09;;;;;;;0.00;0.00;;;;;;;-6.36;69.94;100661.22;5114012;28;20047;-71
2022/01/13 05:35:36;;;;;;;0.00;0.00;;;;;;;-6.31;69.44;100666.88;5113837;28;20040;-71
2022/01/13 05:38:06;;;;;;;0.00;0.00;;;;;;;-6.41;70.38;100653.78;5107506;28;20479;-71
2022/01/13 05:40:32;;;;;;;0.00;0.00;;;;;;;-6.37;70.00;100657.81;5093754;28;20032;-70
2022/01/13 05:42:58;;;;;;;0.00;0.00;;;;;;;-6.33;69.72;100668.78;5093553;28;20027;-71
2022/01/13 05:45:28;;;;;;;0.00;0.00;;;;;;;-6.34;70.02;100664.53;5107407;28;20032;-70
2022/01/13 05:47:56;;;;;;;0.00;0.00;;;;;;;-6.64;70.03;100629.63;5093924;28;20085;-69
2022/01/13 05:50:22;;;;;;;0.00;0.00;;;;;;;-6.38;70.40;100655.31;5092765;28;20090;-70
2022/01/13 05:52:48;;;;;;;1.03;1.03;;;;;;;-6.37;70.19;100670.81;5093507;28;20569;-71
2022/01/13 05:55:14;;;;;;;0.00;0.00;;;;;;;-6.28;70.49;100672.66;5093876;27;20403;-69
2022/01/13 05:57:40;;;;;;;0.00;0.00;;;;;;;-6.36;70.20;100662.06;5114732;27;20115;-70
2022/01/13 06:00:09;;;;;;;0.00;0.00;;;;;;;-6.31;70.54;100666.88;5112382;28;20101;-72
2022/01/13 06:02:35;;;;;;;0.00;0.00;;;;;;;-6.12;70.94;100684.41;5097646;28;20027;-72
2022/01/13 06:05:00;;;;;;;0.00;0.00;;;;;;;-6.22;71.38;100660.91;5112408;28;20042;-72
2022/01/13 06:07:25;;;;;;;0.00;0.00;;;;;;;-6.20;70.42;100676.41;5094004;28;20032;-71
2022/01/13 06:09:51;;;;;;;0.00;0.00;;;;;;;-6.12;70.62;100676.59;5095701;28;20490;-72
2022/01/13 06:12:19;;;;;;;0.20;0.20;;;;;;;-6.13;70.24;100681.00;5102048;28;20032;-71
2022/01/13 06:14:44;;;;;;;1.80;1.70;;;;;;;-5.99;71.05;100689.44;5116409;27;20512;-72
2022/01/13 06:17:10;;;;;;;0.00;0.00;;;;;;;-5.82;70.64;100701.03;5114100;27;20063;-75
2022/01/13 06:19:36;;;;;;;0.53;0.53;;;;;;;-5.69;70.85;100703.44;5127655;27;20031;-77
2022/01/13 06:22:01;;;;;;;0.07;0.07;;;;;;;-5.67;69.71;100712.78;5132592;27;20091;-78
2022/01/13 06:24:27;;;;;;;0.00;0.00;;;;;;;-5.65;70.50;100702.22;5116482;27;20028;-76
2022/01/13 06:26:52;;;;;;;0.10;0.10;;;;;;;-5.51;70.55;100706.28;5113537;28;20031;-71
2022/01/13 06:29:18;;;;;;;0.00;0.00;;;;;;;-5.52;69.94;100692.41;5112023;28;20020;-71
2022/01/13 06:31:43;;;;;;;0.00;0.00;;;;;;;-5.28;69.95;100724.38;5112126;28;20020;-72
2022/01/13 06:34:09;;;;;;;0.00;0.00;;;;;;;-5.27;69.97;100718.16;5112722;28;20024;-72
2022/01/13 06:36:34;;;;;;;2.13;1.80;;;;;;;-5.13;69.56;100725.63;5112945;28;20059;-73
2022/01/13 06:39:00;;;;;;;0.00;0.00;;;;;;;-5.01;69.38;100732.41;5107244;28;20315;-74
2022/01/13 06:41:25;;;;;;;0.20;0.20;;;;;;;-5.01;69.38;100708.91;5106173;28;20492;-72
2022/01/13 06:43:51;;;;;;;0.00;0.00;;;;;;;-4.76;69.72;100738.13;5112192;28;20522;-74
2022/01/13 06:46:16;;;;;;;0.00;0.00;;;;;;;-4.63;69.22;100734.44;5093305;28;20047;-73
2022/01/13 06:48:43;;;;;;;0.97;0.97;;;;;;;-4.64;69.56;100709.28;5098431;28;20054;-73
2022/01/13 06:51:09;;;;;;;0.00;0.00;;;;;;;-4.41;69.29;100738.59;5102703;28;20707;-73
2022/01/13 06:53:35;;;;;;;1.40;0.20;;;;;;;-4.33;69.04;100730.91;5099778;28;20044;-71
2022/01/13 06:56:00;;;;;;;0.63;0.63;;;;;;;-4.20;69.08;100722.78;5112615;28;20050;-72
2022/01/13 06:58:27;;;;;;;0.30;0.30;;;;;;;-4.04;68.64;100735.28;5098278;28;20035;-70
2022/01/13 07:00:52;;;;;;;0.00;0.00;;;;;;;-3.89;68.20;100733.06;5092213;28;20089;-73
2022/01/13 07:03:20;;;;;;;0.00;0.00;;;;;;;-3.86;67.37;100722.31;5103640;28;20387;-74
2022/01/13 07:05:46;;;;;;;0.00;0.00;;;;;;;-3.65;67.49;100737.84;5112626;28;20470;-74
2022/01/13 07:08:11;;;;;;;0.17;0.17;;;;;;;-3.59;66.54;100737.28;5094897;28;20039;-74
2022/01/13 07:10:37;;;;;;;0.10;0.10;;;;;;;-3.59;66.79;100729.44;5110293;28;20042;-74
2022/01/13 07:13:03;;;;;;;0.07;0.07;;;;;;;-3.46;65.97;100752.66;5112246;28;20111;-74
2022/01/13 07:15:31;;;;;;;0.00;0.00;;;;;;;-3.40;65.67;100746.84;5112441;28;20054;-74
2022/01/13 07:17:57;;;;;;;0.55;0.55;;;;;;;-3.35;65.52;100735.97;5110947;28;20028;-72
2022/01/13 07:20:24;;;;;;;0.10;0.10;;;;;;;-3.20;65.22;100753.81;5111073;28;20038;-73
2022/01/13 07:22:51;;;;;;;0.23;0.23;;;;;;;-3.19;65.04;100752.88;5111509;28;20038;-72
2022/01/13 07:25:17;;;;;;;0.00;0.00;;;;;;;-3.04;65.11;100768.91;5112015;28;20114;-73
2022/01/13 07:27:42;;;;;;;0.67;0.67;;;;;;;-3.12;64.94;100744.28;5107680;28;20115;-71
2022/01/13 07:30:09;;;;;;;0.00;0.00;;;;;;;-2.95;65.10;100768.88;5110644;28;20463;-73
2022/01/13 07:32:34;;;;;;;3.13;2.10;;;;;;;-2.88;64.60;100773.53;5112142;28;20024;-72
2022/01/13 07:35:00;;;;;;;1.07;1.07;;;;;;;-2.80;65.01;100773.63;5110380;28;20031;-71
2022/01/13 07:37:26;;;;;;;0.00;0.00;;;;;;;-2.80;65.72;100753.50;5112053;28;20055;-71
2022/01/13 07:39:52;;;;;;;0.00;0.00;;;;;;;-2.68;65.25;100758.56;5111804;27;20043;-73
2022/01/13 07:42:17;;;;;;;0.53;0.53;;;;;;;-2.53;65.04;100764.91;5124630;27;20408;-73
2022/01/13 07:44:43;;;;;;;0.20;0.20;;;;;;;-2.46;65.17;100760.75;5111877;28;20055;-72
2022/01/13 07:47:08;;;;;;;0.00;0.00;;;;;;;-2.33;65.27;100755.16;5111640;28;20027;-74
2022/01/13 07:49:36;;;;;;;0.47;0.47;;;;;;;-2.11;65.23;100782.72;5097853;27;20032;-76
2022/01/13 07:52:03;;;;;;;0.00;0.00;;;;;;;-2.00;64.81;100773.78;5103846;28;20101;-74
2022/01/13 07:54:30;;;;;;;0.00;0.00;;;;;;;-1.86;64.76;100780.28;5111826;28;20600;-72
2022/01/13 07:56:57;;;;;;;0.00;0.00;;;;;;;-1.71;64.55;100782.38;5111505;28;20080;-72
2022/01/13 07:59:27;;;;;;;5.73;1.30;;;;;;;-1.60;63.95;100787.38;5110271;28;20066;-71
2022/01/13 08:01:53;;;;;;;0.20;0.20;;;;;;;-1.64;63.20;100758.00;5111176;28;20581;-71
2022/01/13 08:04:18;;;;;;;0.43;0.43;;;;;;;-1.70;63.01;100750.72;5110914;28;20032;-72
2022/01/13 08:06:44;;;;;;;0.10;0.10;;;;;;;-1.47;62.06;100781.72;5096390;28;20562;-76
2022/01/13 08:09:09;;;;;;;1.13;1.13;;;;;;;-1.44;61.90;100770.94;5103083;28;20076;-72
2022/01/13 08:11:35;;;;;;;0.00;0.00;;;;;;;-1.42;62.47;100766.34;5101267;28;20474;-72
2022/01/13 08:14:00;;;;;;;0.10;0.10;;;;;;;-1.45;61.43;100759.59;5111009;28;20467;-74
2022/01/13 08:16:32;;;;;;;0.50;0.50;;;;;;;-1.31;61.18;100781.84;5109368;28;20391;-78
2022/01/13 08:21:41;;;;;;;0.23;0.23;;;;;;;-1.13;62.05;100784.38;5110329;28;20505;-73
2022/01/13 08:24:07;;;;;;;3.88;3.50;;;;;;;-1.10;61.03;100779.81;5111170;28;20028;-76
2022/01/13 08:26:33;;;;;;;0.73;0.73;;;;;;;-1.09;61.33;100765.72;5114436;28;20020;-76
2022/01/13 08:28:58;;;;;;;0.00;0.00;;;;;;;-0.99;61.61;100780.38;5130435;28;20034;-75
2022/01/13 08:31:24;;;;;;;0.63;0.63;;;;;;;-1.02;61.47;100767.53;5121385;27;20410;-76
2022/01/13 08:33:49;;;;;;;0.00;0.00;;;;;;;-0.89;61.42;100784.66;5111300;28;20019;-81
2022/01/13 08:36:15;;;;;;;0.55;0.55;;;;;;;-0.93;61.59;100764.94;5109550;28;20115;-73
2022/01/13 08:38:40;;;;;;;0.00;0.00;;;;;;;-0.90;61.63;100765.47;5111245;28;20559;-73
2022/01/13 08:41:06;;;;;;;0.53;0.53;;;;;;;-0.75;62.16;100778.00;5111123;28;20027;-73
2022/01/13 08:43:33;;;;;;;0.25;0.25;;;;;;;-0.70;62.46;100775.72;5120887;28;20019;-74
2022/01/13 08:45:58;;;;;;;15.65;3.95;;;;;;;-0.69;62.55;100772.91;5131560;27;20023;-73
2022/01/13 08:48:24;;;;;;;5.13;4.28;;;;;;;-0.73;62.94;100749.75;5130475;28;20492;-72
2022/01/13 08:50:49;;;;;;;1.15;1.10;;;;;;;-0.60;63.40;100763.25;5131749;27;20019;-72
2022/01/13 08:53:16;;;;;;;0.10;0.10;;;;;;;-0.49;63.12;100770.00;5131356;27;20051;-76
2022/01/13 08:55:42;;;;;;;0.50;0.50;;;;;;;-0.42;63.21;100775.47;5131713;27;20031;-77
2022/01/13 08:58:07;;;;;;;0.13;0.13;;;;;;;-0.38;62.25;100775.00;5105453;27;20396;-74
2022/01/13 09:00:36;;;;;;;0.00;0.00;;;;;;;-0.39;62.49;100769.88;5089463;28;20032;-73
2022/01/13 09:03:07;;;;;;;2.30;0.85;;;;;;;-0.26;62.45;100775.47;5098609;28;20046;-71
2022/01/13 09:05:32;;;;;;;0.00;0.00;;;;;;;-0.31;62.37;100762.00;5112527;27;20032;-74
2022/01/13 09:07:58;;;;;;;0.00;0.00;;;;;;;-0.17;62.06;100774.53;5104506;28;20085;-72
2022/01/13 09:10:23;;;;;;;0.73;0.73;;;;;;;-0.12;63.12;100779.31;5095810;28;20043;-75
2022/01/13 09:12:49;;;;;;;0.00;0.00;;;;;;;-0.03;63.31;100769.59;5110953;28;20039;-82
2022/01/13 09:15:24;;;;;;;0.00;0.00;;;;;;;-0.23;62.24;100742.78;5093608;28;20401;-73
2022/01/13 09:17:52;;;;;;;0.15;0.15;;;;;;;0.11;63.78;100754.97;5104496;28;20070;-72
2022/01/13 09:20:18;;;;;;;0.00;0.00;;;;;;;0.13;62.73;100735.38;5090204;28;20052;-73
2022/01/13 09:22:44;;;;;;;0.10;0.10;;;;;;;0.11;62.45;100737.38;5106290;28;20036;-73
2022/01/13 09:25:13;;;;;;;2.20;1.27;;;;;;;0.21;63.56;100744.25;5110624;28;20398;-72
2022/01/13 09:27:41;;;;;;;1.13;1.13;;;;;;;0.29;63.53;100754.78;5100411;28;20036;-73
2022/01/13 09:30:13;;;;;;;0.00;0.00;;;;;;;0.35;63.43;100759.41;5092072;28;20445;-73
2022/01/13 09:32:39;;;;;;;0.80;0.75;;;;;;;0.41;63.25;100750.81;5093771;28;20028;-72
2022/01/13 09:35:07;;;;;;;0.00;0.00;;;;;;;0.38;62.10;100730.13;5092312;28;20020;-72
2022/01/13 09:37:33;;;;;;;0.05;0.05;;;;;;;0.45;63.20;100725.84;5092667;28;20020;-72
2022/01/13 09:39:59;;;;;;;0.00;0.00;;;;;;;0.52;61.18;100731.22;5093436;28;20039;-72
2022/01/13 09:42:31;;;;;;;1.85;1.75;;;;;;;0.61;61.29;100732.88;5093852;28;20038;-72
2022/01/13 09:44:57;;;;;;;0.00;0.00;;;;;;;0.58;61.01;100716.59;5109414;28;20028;-73
2022/01/13 09:47:24;;;;;;;0.00;0.00;;;;;;;0.73;60.48;100733.34;5093434;28;20043;-73
2022/01/13 09:49:49;;;;;;;0.00;0.00;;;;;;;0.76;59.47;100729.53;5093840;28;20395;-73
2022/01/13 09:52:15;;;;;;;0.00;0.00;;;;;;;0.90;60.89;100730.63;5109800;28;20054;-73
2022/01/13 09:54:41;;;;;;;0.00;0.00;;;;;;;0.96;59.64;100727.31;5114062;28;20027;-73
2022/01/13 09:57:08;;;;;;;0.00;0.00;;;;;;;0.89;59.12;100714.03;5110987;27;20035;-71
2022/01/13 09:59:33;;;;;;;0.00;0.00;;;;;;;1.04;59.42;100723.81;5106246;28;20032;-73
2022/01/13 10:01:58;;;;;;;0.00;0.00;;;;;;;1.00;60.46;100710.19;5102668;27;20046;-72
2022/01/13 10:04:24;;;;;;;0.25;0.25;;;;;;;1.05;59.41;100728.94;5111737;28;20510;-71
2022/01/13 10:06:49;;;;;;;0.10;0.10;;;;;;;1.08;59.83;100717.22;5122330;27;20034;-72
2022/01/13 10:09:16;;;;;;;0.00;0.00;;;;;;;1.19;59.58;100735.28;5091714;28;20024;-72
2022/01/13 10:11:52;;;;;;;0.00;0.00;;;;;;;1.21;59.51;100716.66;5093089;28;20476;-73
2022/01/13 10:17:03;;;;;;;0.57;0.57;;;;;;;1.29;59.85;100706.06;5113423;28;20031;-71
2022/01/13 10:19:37;;;;;;;0.65;0.65;;;;;;;1.22;59.90;100695.41;5133675;27;20095;-71
2022/01/13 10:22:05;;;;;;;0.20;0.20;;;;;;;1.31;58.96;100701.44;5120794;27;20032;-71
2022/01/13 10:24:33;;;;;;;0.00;0.00;;;;;;;1.34;59.26;100695.81;5094155;28;20096;-73
2022/01/13 10:27:22;;;;;;;0.00;0.00;;;;;;;1.36;59.16;100695.66;5093017;28;20030;-72
2022/01/13 10:29:52;;;;;;;0.57;0.57;;;;;;;1.28;58.73;100675.44;5112741;28;20036;-72
2022/01/13 10:32:26;;;;;;;0.43;0.43;;;;;;;1.41;59.54;100680.13;5113092;28;20027;-71
2022/01/13 10:34:58;;;;;;;0.28;0.28;;;;;;;1.46;59.79;100672.50;5101701;28;20036;-71
2022/01/13 10:37:35;;;;;;;0.00;0.00;;;;;;;1.49;58.81;100671.34;5095443;28;20024;-71
2022/01/13 10:40:25;;;;;;;0.00;0.00;;;;;;;1.49;58.15;100653.72;5111794;28;20100;-71
2022/01/13 10:45:31;;;;;;;0.22;0.22;;;;;;;1.44;58.37;100622.59;5093326;28;20455;-71
2022/01/13 10:47:56;;;;;;;1.98;1.80;;;;;;;1.67;58.47;100655.22;5126653;27;20047;-71
2022/01/13 10:50:26;;;;;;;0.00;0.00;;;;;;;1.62;55.94;100645.19;5115317;27;20034;-71
2022/01/13 10:52:52;;;;;;;0.00;0.00;;;;;;;1.58;56.98;100628.91;5131806;27;20073;-71
2022/01/13 10:55:21;;;;;;;0.52;0.52;;;;;;;1.69;57.25;100635.59;5123254;27;20486;-72
2022/01/13 10:57:48;;;;;;;0.15;0.15;;;;;;;1.71;57.46;100635.41;5133119;27;20723;-73
2022/01/13 11:00:16;;;;;;;0.10;0.10;;;;;;;1.84;56.83;100626.88;5132021;27;20023;-74
2022/01/13 11:02:45;;;;;;;0.32;0.32;;;;;;;1.84;56.68;100624.25;5131086;27;20023;-72
2022/01/13 11:05:11;;;;;;;0.60;0.60;;;;;;;1.97;56.84;100615.72;5112422;28;20119;-74
2022/01/13 11:07:40;;;;;;;0.00;0.00;;;;;;;2.05;57.25;100618.25;5111045;28;20115;-77
2022/01/13 11:10:06;;;;;;;0.00;0.00;;;;;;;2.01;57.16;100601.16;5106949;28;20031;-72
2022/01/13 11:12:43;;;;;;;0.15;0.15;;;;;;;2.03;57.05;100604.44;5108573;28;20414;-76
2022/01/13 11:15:13;;;;;;;0.17;0.17;;;;;;;2.07;56.55;100593.31;5095860;28;20029;-75
2022/01/13 11:17:40;;;;;;;1.08;0.98;;;;;;;2.07;56.45;100592.53;5104591;28;20525;-75
2022/01/13 11:20:09;;;;;;;0.00;0.00;;;;;;;1.93;56.77;100573.06;5097729;27;20031;-79
2022/01/13 11:22:37;;;;;;;1.50;1.45;;;;;;;1.90;57.67;100568.97;5100187;28;20600;-73
2022/01/13 11:25:05;;;;;;;0.00;0.00;;;;;;;2.02;57.70;100571.13;5106588;28;20043;-76
2022/01/13 11:27:30;;;;;;;2.22;1.98;;;;;;;2.14;57.46;100584.72;5091272;28;20028;-74
2022/01/13 11:29:56;;;;;;;0.00;0.00;;;;;;;2.13;57.06;100560.13;5091026;28;20400;-73
2022/01/13 11:32:23;;;;;;;0.00;0.00;;;;;;;2.26;56.81;100575.31;5091496;28;20031;-74
2022/01/13 11:34:49;;;;;;;0.00;0.00;;;;;;;2.28;55.92;100575.94;5102344;27;20019;-73
2022/01/13 11:37:17;;;;;;;0.00;0.00;;;;;;;2.22;55.88;100555.56;5116888;27;20035;-72
2022/01/13 11:39:44;;;;;;;0.00;0.00;;;;;;;2.27;55.39;100553.22;5100252;28;20028;-71
2022/01/13 11:42:12;;;;;;;0.22;0.20;;;;;;;2.34;54.91;100559.38;5091375;28;20368;-73
2022/01/13 11:44:39;;;;;;;0.10;0.10;;;;;;;2.44;55.95;100563.56;5099904;28;20031;-72
2022/01/13 11:47:18;;;;;;;0.00;0.00;;;;;;;2.50;55.32;100563.66;5111613;28;20035;-72
2022/01/13 11:49:56;;;;;;;0.10;0.10;;;;;;;2.42;54.27;100560.25;5108700;28;20115;-73
2022/01/13 11:52:41;;;;;;;0.20;0.20;;;;;;;2.33;55.39;100554.28;5089000;28;20044;-73
2022/01/13 11:55:23;;;;;;;0.00;0.00;;;;;;;2.10;55.40;100525.34;5091358;28;20028;-73
2022/01/13 11:57:50;;;;;;;0.55;0.55;;;;;;;2.22;56.38;100566.13;5091319;28;20116;-73
2022/01/13 12:00:25;;;;;;;0.00;0.00;;;;;;;2.28;58.20;100560.09;5091154;28;20380;-74
2022/01/13 12:02:51;;;;;;;0.28;0.28;;;;;;;2.27;58.15;100544.44;5110336;28;20038;-74